Terminal Aerodrome Forecast
Issued by NWS

Home | Current Version | Previous Version | Graphics & Text | Print | Product List | Glossary On
Versions: 1 2 3 4 5 6 7 8 9 10 11 12 13 14 15 16 17 18 19 20 21 22 23 24 25 26 27 28 29
000
FTUS43 KGRB 241729
TAFRHI
TAF
KRHI 241729Z 2418/2518 23008G15KT P6SM VCSH SCT035 BKN060
      TEMPO 2418/2422 3SM -TSRA BR BKN025CB
     FM242200 24005KT P6SM VCTS BKN040CB
     FM250100 32003KT P6SM SCT045 BKN250
     FM250300 VRB03KT 3SM BR SCT006 BKN250
      TEMPO 2507/2511 1SM BR BKN004
     FM251400 11005KT P6SM SCT018 BKN200=

USA.gov is the U.S. government's official web portal to all federal, state and local government web resources and services.